createdAt,value
2019-05-19T00:01:21.344Z,13.23
2019-05-19T00:03:49.503Z,13.22
2019-05-19T00:06:17.689Z,13.21
2019-05-19T00:08:45.878Z,13.18
2019-05-19T00:11:14.003Z,13.17
2019-05-19T00:13:42.174Z,13.15
2019-05-19T00:16:10.322Z,13.13
2019-05-19T00:18:38.437Z,13.12
2019-05-19T00:21:06.552Z,13.10
2019-05-19T00:23:34.693Z,13.07
2019-05-19T00:26:02.915Z,13.06
2019-05-19T00:28:31.050Z,13.04
2019-05-19T00:30:59.183Z,13.02
2019-05-19T00:33:27.343Z,13.00
2019-05-19T00:35:55.653Z,12.99
2019-05-19T00:38:23.871Z,12.97
2019-05-19T00:40:52.049Z,12.94
2019-05-19T00:43:20.188Z,12.93
2019-05-19T00:45:48.302Z,12.92
2019-05-19T00:48:16.420Z,12.90
2019-05-19T00:50:44.573Z,12.88
2019-05-19T00:53:12.699Z,12.87
2019-05-19T00:55:41.045Z,12.85
2019-05-19T00:58:09.967Z,12.83
2019-05-19T01:00:38.149Z,12.82
2019-05-19T01:03:06.307Z,12.81
2019-05-19T01:05:34.425Z,12.80
2019-05-19T01:08:03.769Z,12.78
2019-05-19T01:10:31.899Z,12.77
2019-05-19T01:13:00.008Z,12.76
2019-05-19T01:15:28.125Z,12.76
2019-05-19T01:17:56.265Z,12.73
2019-05-19T01:20:24.353Z,12.73
2019-05-19T01:22:52.475Z,12.71
2019-05-19T01:25:20.633Z,12.70
2019-05-19T01:27:48.758Z,12.67
2019-05-19T01:30:17.702Z,12.66
2019-05-19T01:32:45.829Z,12.65
2019-05-19T01:35:13.994Z,12.63
2019-05-19T01:37:42.098Z,12.62
2019-05-19T01:40:10.520Z,12.60
2019-05-19T01:42:38.695Z,12.59
2019-05-19T01:45:07.465Z,12.58
2019-05-19T01:47:35.574Z,12.55
2019-05-19T01:50:17.098Z,12.54
2019-05-19T01:52:33.844Z,12.53
2019-05-19T01:55:01.943Z,12.51
2019-05-19T01:57:30.163Z,12.49
2019-05-19T01:59:58.421Z,12.48
2019-05-19T02:02:26.545Z,12.46
2019-05-19T02:04:54.831Z,12.45
2019-05-19T02:07:22.966Z,12.42
2019-05-19T02:09:51.111Z,12.41
2019-05-19T02:12:19.274Z,12.40
2019-05-19T02:14:47.492Z,12.40
2019-05-19T02:17:15.743Z,12.38
2019-05-19T02:19:43.963Z,12.38
2019-05-19T02:22:12.042Z,12.37
2019-05-19T02:24:40.187Z,12.36
2019-05-19T02:27:08.342Z,12.36
2019-05-19T02:29:36.447Z,12.35
2019-05-19T02:32:04.608Z,12.34
2019-05-19T02:34:32.733Z,12.34
2019-05-19T02:37:00.922Z,12.34
2019-05-19T02:39:29.054Z,12.32
2019-05-19T02:41:59.559Z,12.31
2019-05-19T02:44:28.517Z,12.29
2019-05-19T02:46:58.073Z,12.29
2019-05-19T02:49:29.352Z,12.29
2019-05-19T02:51:58.213Z,12.27
2019-05-19T02:54:27.274Z,12.24
2019-05-19T02:56:56.416Z,12.25
2019-05-19T02:59:25.530Z,12.24
2019-05-19T03:01:53.652Z,12.24
2019-05-19T03:04:21.829Z,12.23
2019-05-19T03:06:49.971Z,12.23
2019-05-19T03:09:18.176Z,12.22
2019-05-19T03:11:46.310Z,12.21
2019-05-19T03:14:14.503Z,12.21
2019-05-19T03:16:42.641Z,12.19
2019-05-19T03:19:10.845Z,12.19
2019-05-19T03:21:38.979Z,12.18
2019-05-19T03:24:07.403Z,12.18
2019-05-19T03:26:35.519Z,12.16
2019-05-19T03:29:03.737Z,12.16
2019-05-19T03:31:31.910Z,12.15
2019-05-19T03:34:00.016Z,12.15
2019-05-19T03:36:28.154Z,12.15
2019-05-19T03:38:56.285Z,12.14
2019-05-19T03:41:24.460Z,12.14
2019-05-19T03:43:52.592Z,12.13
2019-05-19T03:46:20.711Z,12.13
2019-05-19T03:48:48.840Z,12.13
2019-05-19T03:51:30.031Z,12.12
2019-05-19T03:53:46.849Z,12.12
2019-05-19T03:56:14.975Z,12.11
2019-05-19T03:58:43.125Z,12.13
2019-05-19T04:01:11.235Z,12.14
2019-05-19T04:03:39.357Z,12.13
2019-05-19T04:06:07.807Z,12.14
2019-05-19T04:08:35.985Z,12.15
2019-05-19T04:11:04.100Z,12.15
2019-05-19T04:13:32.256Z,12.16
2019-05-19T04:16:00.391Z,12.17
2019-05-19T04:18:28.580Z,12.18
2019-05-19T04:20:56.981Z,12.20
2019-05-19T04:23:25.116Z,12.23
2019-05-19T04:25:53.415Z,12.23
2019-05-19T04:28:21.563Z,12.25
2019-05-19T04:30:49.702Z,12.27
2019-05-19T04:33:17.843Z,12.30
2019-05-19T04:35:46.021Z,12.31
2019-05-19T04:38:14.123Z,12.34
2019-05-19T04:40:42.567Z,12.36
2019-05-19T04:43:10.707Z,12.37
2019-05-19T04:45:38.840Z,12.39
2019-05-19T04:48:09.677Z,12.42
2019-05-19T04:50:36.869Z,12.45
2019-05-19T04:53:05.007Z,12.47
2019-05-19T04:55:33.138Z,12.49
2019-05-19T04:58:03.407Z,12.51
2019-05-19T05:00:31.506Z,12.53
2019-05-19T05:02:59.632Z,12.57
2019-05-19T05:05:27.808Z,12.59
2019-05-19T05:07:55.994Z,12.63
2019-05-19T05:10:24.109Z,12.65
2019-05-19T05:12:52.234Z,12.70
2019-05-19T05:15:20.373Z,12.73
2019-05-19T05:17:48.508Z,12.76
2019-05-19T05:20:16.654Z,12.81
2019-05-19T05:22:44.836Z,12.85
2019-05-19T05:25:13.553Z,12.89
2019-05-19T05:27:41.650Z,12.93
2019-05-19T05:30:10.374Z,12.99
2019-05-19T05:32:38.619Z,13.03
2019-05-19T05:35:07.169Z,13.07
2019-05-19T05:37:35.300Z,13.13
2019-05-19T05:40:04.054Z,13.17
2019-05-19T05:42:32.240Z,13.20
2019-05-19T05:45:00.400Z,13.24
2019-05-19T05:47:28.546Z,13.30
2019-05-19T05:49:56.716Z,13.33
2019-05-19T05:52:37.450Z,13.37
2019-05-19T05:54:54.704Z,13.40
2019-05-19T05:57:22.817Z,13.45
2019-05-19T05:59:50.961Z,13.50
2019-05-19T06:02:19.166Z,13.55
2019-05-19T06:04:47.303Z,13.58
2019-05-19T06:07:15.459Z,13.61
2019-05-19T06:09:43.595Z,13.65
2019-05-19T06:12:11.680Z,13.70
2019-05-19T06:14:39.823Z,13.73
2019-05-19T06:17:07.923Z,13.77
2019-05-19T06:19:36.044Z,13.81
2019-05-19T06:22:04.276Z,13.86
2019-05-19T06:24:32.417Z,13.90
2019-05-19T06:27:00.571Z,13.96
2019-05-19T06:29:28.705Z,14.00
2019-05-19T06:31:56.937Z,14.06
2019-05-19T06:34:25.184Z,14.11
2019-05-19T06:36:55.172Z,14.17
2019-05-19T06:39:23.215Z,14.26
2019-05-19T06:41:51.341Z,14.33
2019-05-19T06:44:19.456Z,14.41
2019-05-19T06:46:47.604Z,14.49
2019-05-19T06:49:15.745Z,14.58
2019-05-19T06:51:43.882Z,14.67
2019-05-19T06:54:12.038Z,14.76
2019-05-19T06:56:40.283Z,14.84
2019-05-19T06:59:08.444Z,14.94
2019-05-19T07:01:36.559Z,15.03
2019-05-19T07:04:04.732Z,15.12
2019-05-19T07:06:34.313Z,15.20
2019-05-19T07:09:02.865Z,15.31
2019-05-19T07:11:31.018Z,15.43
2019-05-19T07:14:02.756Z,15.55
2019-05-19T07:16:28.982Z,15.69
2019-05-19T07:18:57.157Z,15.83
2019-05-19T07:21:25.293Z,15.99
2019-05-19T07:23:53.411Z,16.12
2019-05-19T07:26:21.591Z,16.22
2019-05-19T07:28:49.704Z,16.29
2019-05-19T07:31:17.860Z,16.33
2019-05-19T07:33:46.315Z,16.39
2019-05-19T07:36:14.440Z,16.44
2019-05-19T07:38:42.570Z,16.52
2019-05-19T07:41:10.730Z,16.63
2019-05-19T07:43:38.937Z,16.75
2019-05-19T07:46:07.571Z,16.84
2019-05-19T07:48:35.667Z,16.94
2019-05-19T07:51:03.842Z,17.05
2019-05-19T07:53:42.545Z,17.14
2019-05-19T07:56:01.874Z,17.24
2019-05-19T07:58:30.023Z,17.36
2019-05-19T08:00:58.159Z,17.48
2019-05-19T08:03:26.266Z,17.62
2019-05-19T08:05:56.987Z,17.78
2019-05-19T08:08:24.329Z,17.94
2019-05-19T08:10:52.769Z,18.11
2019-05-19T08:13:20.922Z,18.22
2019-05-19T08:15:49.159Z,18.31
2019-05-19T08:18:17.306Z,18.41
2019-05-19T08:20:45.471Z,18.54
2019-05-19T08:23:13.611Z,18.75
2019-05-19T08:25:41.805Z,19.03
2019-05-19T08:28:10.018Z,19.35
2019-05-19T08:30:40.368Z,19.69
2019-05-19T08:33:07.761Z,20.04
2019-05-19T08:35:35.917Z,20.32
2019-05-19T08:38:04.059Z,20.55
2019-05-19T08:40:32.267Z,20.76
2019-05-19T08:43:00.442Z,20.92
2019-05-19T08:45:28.612Z,21.05
2019-05-19T08:47:56.708Z,21.19
2019-05-19T08:50:24.813Z,21.34
2019-05-19T08:52:52.937Z,21.42
2019-05-19T08:55:21.174Z,21.68
2019-05-19T08:57:49.364Z,21.84
2019-05-19T09:00:17.503Z,22.00
2019-05-19T09:02:45.607Z,22.17
2019-05-19T09:05:13.747Z,22.27
2019-05-19T09:07:41.901Z,22.29
2019-05-19T09:10:10.031Z,22.33
2019-05-19T09:12:38.221Z,22.45
2019-05-19T09:15:06.732Z,22.61
2019-05-19T09:17:34.952Z,22.78
2019-05-19T09:20:03.618Z,22.89
2019-05-19T09:22:31.762Z,22.96
2019-05-19T09:24:59.900Z,22.95
2019-05-19T09:27:28.065Z,23.10
2019-05-19T09:29:56.232Z,23.15
2019-05-19T09:32:24.419Z,23.15
2019-05-19T09:34:52.544Z,23.16
2019-05-19T09:37:20.706Z,23.18
2019-05-19T09:39:48.890Z,23.25
2019-05-19T09:42:17.737Z,23.42
2019-05-19T09:44:45.842Z,23.53
2019-05-19T09:47:13.999Z,23.66
2019-05-19T09:49:42.087Z,23.84
2019-05-19T09:52:10.197Z,23.84
2019-05-19T09:54:45.124Z,23.81
2019-05-19T09:57:08.235Z,23.70
2019-05-19T09:59:36.371Z,23.65
2019-05-19T10:02:04.570Z,23.64
2019-05-19T10:04:32.680Z,23.69
2019-05-19T10:07:00.924Z,23.68
2019-05-19T10:09:58.041Z,23.60
2019-05-19T10:12:26.316Z,23.53
2019-05-19T10:14:54.561Z,23.41
2019-05-19T10:17:22.694Z,23.33
2019-05-19T10:19:50.934Z,23.35
2019-05-19T10:22:19.076Z,23.48
2019-05-19T10:25:03.680Z,23.51
2019-05-19T10:27:17.052Z,23.43
2019-05-19T10:29:45.190Z,23.25
2019-05-19T10:32:13.368Z,23.03
2019-05-19T10:34:41.507Z,22.83
2019-05-19T10:37:09.642Z,22.65
2019-05-19T10:39:37.769Z,22.52
2019-05-19T10:42:05.970Z,22.32
2019-05-19T10:44:34.209Z,22.23
2019-05-19T10:47:02.403Z,22.09
2019-05-19T10:49:30.549Z,21.99
2019-05-19T10:51:58.653Z,22.29
2019-05-19T10:54:26.775Z,22.29
2019-05-19T10:56:54.923Z,22.68
2019-05-19T10:59:23.062Z,23.21
2019-05-19T11:01:51.226Z,23.81
2019-05-19T11:04:19.327Z,24.10
2019-05-19T11:06:47.490Z,24.13
2019-05-19T11:09:15.699Z,24.06
2019-05-19T11:11:43.878Z,24.34
2019-05-19T11:14:12.145Z,24.68
2019-05-19T11:16:40.290Z,24.89
2019-05-19T11:19:08.474Z,25.09
2019-05-19T11:21:36.605Z,25.13
2019-05-19T11:24:04.832Z,24.99
2019-05-19T11:26:32.964Z,24.76
2019-05-19T11:29:01.135Z,24.61
2019-05-19T11:31:29.261Z,24.50
2019-05-19T11:33:57.595Z,24.51
2019-05-19T11:36:25.834Z,24.54
2019-05-19T11:38:54.015Z,24.73
2019-05-19T11:41:22.199Z,25.00
2019-05-19T11:43:50.345Z,25.24
2019-05-19T11:46:18.471Z,25.31
2019-05-19T11:48:46.727Z,25.22
2019-05-19T11:51:14.913Z,24.98
2019-05-19T11:53:43.079Z,24.66
2019-05-19T11:56:11.810Z,24.48
2019-05-19T11:58:39.996Z,24.47
2019-05-19T12:01:08.153Z,24.60
2019-05-19T12:03:36.320Z,24.76
2019-05-19T12:06:04.515Z,24.85
2019-05-19T12:08:32.650Z,25.20
2019-05-19T12:11:06.061Z,25.62
2019-05-19T12:13:35.040Z,25.92
2019-05-19T12:16:03.615Z,26.16
2019-05-19T12:18:32.152Z,26.29
2019-05-19T12:21:00.313Z,26.36
2019-05-19T12:23:28.441Z,26.39
2019-05-19T12:25:56.551Z,26.40
2019-05-19T12:28:24.639Z,26.47
2019-05-19T12:30:52.823Z,26.56
2019-05-19T12:33:20.976Z,26.57
2019-05-19T12:35:49.155Z,26.53
2019-05-19T12:38:17.325Z,26.36
2019-05-19T12:40:45.459Z,26.09
2019-05-19T12:43:13.585Z,25.77
2019-05-19T12:45:41.788Z,25.61
2019-05-19T12:48:09.868Z,25.32
2019-05-19T12:50:38.137Z,25.06
2019-05-19T12:53:06.209Z,24.86
2019-05-19T12:55:34.378Z,24.74
2019-05-19T12:58:02.546Z,24.47
2019-05-19T13:00:30.773Z,24.22
2019-05-19T13:02:58.916Z,24.09
2019-05-19T13:05:27.083Z,23.86
2019-05-19T13:07:55.207Z,23.56
2019-05-19T13:10:23.333Z,23.32
2019-05-19T13:12:51.597Z,23.20
2019-05-19T13:15:21.259Z,22.75
2019-05-19T13:17:49.704Z,22.75
2019-05-19T13:20:17.905Z,22.56
2019-05-19T13:22:46.042Z,22.43
2019-05-19T13:25:14.269Z,22.38
2019-05-19T13:27:42.409Z,22.31
2019-05-19T13:30:10.677Z,22.33
2019-05-19T13:32:38.873Z,22.33
2019-05-19T13:35:07.160Z,22.33
2019-05-19T13:37:35.335Z,22.28
2019-05-19T13:40:04.150Z,22.22
2019-05-19T13:42:32.361Z,22.23
2019-05-19T13:45:00.502Z,22.24
2019-05-19T13:47:28.617Z,22.22
2019-05-19T13:49:56.770Z,22.18
2019-05-19T13:52:24.915Z,22.15
2019-05-19T13:54:53.196Z,22.13
2019-05-19T13:57:21.377Z,22.12
2019-05-19T13:59:49.529Z,22.10
2019-05-19T14:02:17.669Z,22.13
2019-05-19T14:04:45.837Z,22.05
2019-05-19T14:07:13.984Z,22.02
2019-05-19T14:09:42.119Z,22.06
2019-05-19T14:12:10.303Z,22.12
2019-05-19T14:14:38.526Z,22.19
2019-05-19T14:17:06.667Z,22.25
2019-05-19T14:19:36.156Z,22.24
2019-05-19T14:22:04.310Z,22.27
2019-05-19T14:24:32.546Z,22.24
2019-05-19T14:27:02.078Z,22.17
2019-05-19T14:29:31.464Z,22.07
2019-05-19T14:31:59.623Z,22.00
2019-05-19T14:34:27.773Z,21.93
2019-05-19T14:36:55.876Z,21.85
2019-05-19T14:39:24.059Z,21.74
2019-05-19T14:41:52.272Z,21.69
2019-05-19T14:44:20.356Z,21.64
2019-05-19T14:46:48.496Z,21.56
2019-05-19T14:49:16.693Z,21.51
2019-05-19T14:51:44.860Z,21.38
2019-05-19T14:54:13.039Z,21.28
2019-05-19T14:56:41.244Z,21.25
2019-05-19T14:59:09.528Z,21.21
2019-05-19T15:01:37.704Z,21.15
2019-05-19T15:04:05.974Z,21.15
2019-05-19T15:06:34.154Z,21.14
2019-05-19T15:09:02.281Z,21.19
2019-05-19T15:11:30.498Z,21.18
2019-05-19T15:13:58.612Z,21.15
2019-05-19T15:16:26.777Z,21.04
2019-05-19T15:18:54.922Z,20.92
2019-05-19T15:21:23.040Z,20.80
2019-05-19T15:23:51.581Z,20.74
2019-05-19T15:26:19.734Z,20.81
2019-05-19T15:28:47.872Z,20.96
2019-05-19T15:31:16.016Z,21.09
2019-05-19T15:33:45.260Z,21.27
2019-05-19T15:36:13.365Z,21.53
2019-05-19T15:38:41.504Z,21.73
2019-05-19T15:41:09.631Z,21.85
2019-05-19T15:43:37.828Z,21.95
2019-05-19T15:46:05.992Z,22.02
2019-05-19T15:48:34.109Z,22.14
2019-05-19T15:51:02.329Z,22.14
2019-05-19T15:53:30.514Z,22.18
2019-05-19T15:55:58.681Z,22.14
2019-05-19T15:58:26.800Z,22.13
2019-05-19T16:00:55.022Z,22.14
2019-05-19T16:03:23.146Z,22.22
2019-05-19T16:05:51.257Z,22.28
2019-05-19T16:08:19.475Z,22.34
2019-05-19T16:10:47.676Z,22.40
2019-05-19T16:13:16.614Z,22.32
2019-05-19T16:15:44.769Z,22.24
2019-05-19T16:18:12.919Z,22.03
2019-05-19T16:20:41.026Z,21.77
2019-05-19T16:23:09.177Z,21.52
2019-05-19T16:25:37.306Z,21.25
2019-05-19T16:28:05.532Z,20.96
2019-05-19T16:30:33.699Z,20.68
2019-05-19T16:33:04.191Z,20.43
2019-05-19T16:35:31.394Z,20.28
2019-05-19T16:37:59.672Z,20.11
2019-05-19T16:40:27.784Z,20.06
2019-05-19T16:42:55.945Z,20.00
2019-05-19T16:45:24.192Z,19.97
2019-05-19T16:47:52.359Z,19.94
2019-05-19T16:50:20.631Z,19.86
2019-05-19T16:52:48.899Z,19.79
2019-05-19T16:55:17.126Z,19.69
2019-05-19T16:57:45.280Z,19.61
2019-05-19T17:00:13.615Z,19.51
2019-05-19T17:02:41.808Z,19.40
2019-05-19T17:05:10.150Z,19.32
2019-05-19T17:07:38.348Z,19.26
2019-05-19T17:10:06.696Z,19.21
2019-05-19T17:12:34.884Z,19.17
2019-05-19T17:15:03.190Z,19.10
2019-05-19T17:17:34.346Z,19.05
2019-05-19T17:20:03.365Z,19.01
2019-05-19T17:22:31.890Z,18.96
2019-05-19T17:25:00.480Z,18.94
2019-05-19T17:27:28.759Z,18.94
2019-05-19T17:29:56.866Z,18.95
2019-05-19T17:32:24.986Z,18.93
2019-05-19T17:34:53.135Z,18.90
2019-05-19T17:37:21.288Z,18.86
2019-05-19T17:39:49.411Z,18.79
2019-05-19T17:42:17.559Z,18.69
2019-05-19T17:44:45.663Z,18.66
2019-05-19T17:47:13.792Z,18.60
2019-05-19T17:49:41.907Z,18.53
2019-05-19T17:52:10.025Z,18.44
2019-05-19T17:54:38.140Z,18.40
2019-05-19T17:57:06.288Z,18.37
2019-05-19T17:59:35.127Z,18.32
2019-05-19T18:02:03.274Z,18.22
2019-05-19T18:04:31.484Z,18.15
2019-05-19T18:06:59.640Z,18.11
2019-05-19T18:09:27.797Z,18.03
2019-05-19T18:11:55.909Z,17.93
2019-05-19T18:14:24.038Z,17.87
2019-05-19T18:16:52.287Z,17.81
2019-05-19T18:19:20.521Z,17.73
2019-05-19T18:21:48.829Z,17.65
2019-05-19T18:24:16.946Z,17.55
2019-05-19T18:26:45.099Z,17.50
2019-05-19T18:29:13.249Z,17.43
2019-05-19T18:31:41.403Z,17.38
2019-05-19T18:34:09.569Z,17.33
2019-05-19T18:36:37.746Z,17.25
2019-05-19T18:39:05.923Z,17.16
2019-05-19T18:41:34.045Z,17.10
2019-05-19T18:44:02.161Z,17.04
2019-05-19T18:46:30.322Z,16.97
2019-05-19T18:48:58.450Z,16.93
2019-05-19T18:51:26.979Z,16.89
2019-05-19T18:53:55.145Z,16.84
2019-05-19T18:56:23.299Z,16.80
2019-05-19T18:58:51.461Z,16.75
2019-05-19T19:01:19.630Z,16.69
2019-05-19T19:03:47.757Z,16.64
2019-05-19T19:06:15.881Z,16.62
2019-05-19T19:08:44.048Z,16.60
2019-05-19T19:11:12.163Z,16.59
2019-05-19T19:13:40.395Z,16.58
2019-05-19T19:16:08.500Z,16.57
2019-05-19T19:18:36.656Z,16.55
2019-05-19T19:21:04.861Z,16.52
2019-05-19T19:23:32.963Z,16.48
2019-05-19T19:26:01.208Z,16.45
2019-05-19T19:28:29.463Z,16.38
2019-05-19T19:30:57.726Z,16.33
2019-05-19T19:33:25.883Z,16.29
2019-05-19T19:35:54.043Z,16.25
2019-05-19T19:38:22.218Z,16.19
2019-05-19T19:40:50.364Z,16.16
2019-05-19T19:43:18.529Z,16.10
2019-05-19T19:45:46.631Z,16.06
2019-05-19T19:48:14.843Z,16.02
2019-05-19T19:50:43.012Z,15.95
2019-05-19T19:53:11.917Z,15.85
2019-05-19T19:55:40.030Z,15.77
2019-05-19T19:58:08.196Z,15.67
2019-05-19T20:00:43.772Z,15.59
2019-05-19T20:03:12.545Z,15.53
2019-05-19T20:05:40.891Z,15.49
2019-05-19T20:08:09.423Z,15.43
2019-05-19T20:10:38.188Z,15.39
2019-05-19T20:13:06.370Z,15.29
2019-05-19T20:15:35.222Z,15.24
2019-05-19T20:18:03.361Z,15.17
2019-05-19T20:20:31.504Z,15.09
2019-05-19T20:22:59.626Z,15.01
2019-05-19T20:25:27.733Z,15.01
2019-05-19T20:27:55.915Z,15.00
2019-05-19T20:30:35.134Z,14.99
2019-05-19T20:32:53.888Z,14.96
2019-05-19T20:35:25.029Z,14.96
2019-05-19T20:37:54.893Z,14.94
2019-05-19T20:40:23.068Z,14.94
2019-05-19T20:42:51.327Z,14.89
2019-05-19T20:45:19.489Z,14.86
2019-05-19T20:47:50.606Z,14.85
2019-05-19T20:50:21.102Z,14.82
2019-05-19T20:52:50.166Z,14.74
2019-05-19T20:55:21.053Z,14.70
2019-05-19T20:57:51.809Z,14.66
2019-05-19T21:00:20.938Z,14.63
2019-05-19T21:02:52.828Z,14.61
2019-05-19T21:05:22.159Z,14.58
2019-05-19T21:07:50.308Z,14.55
2019-05-19T21:10:18.447Z,14.51
2019-05-19T21:12:49.287Z,14.50
2019-05-19T21:15:17.415Z,14.47
2019-05-19T21:17:45.553Z,14.43
2019-05-19T21:20:13.842Z,14.40
2019-05-19T21:22:41.973Z,14.38
2019-05-19T21:25:10.312Z,14.37
2019-05-19T21:27:38.471Z,14.34
2019-05-19T21:30:08.250Z,14.32
2019-05-19T21:32:36.408Z,14.26
2019-05-19T21:35:04.939Z,14.20
2019-05-19T21:37:33.050Z,14.12
2019-05-19T21:40:01.188Z,14.05
2019-05-19T21:42:29.322Z,13.96
2019-05-19T21:44:57.430Z,13.86
2019-05-19T21:47:25.550Z,13.80
2019-05-19T21:49:53.715Z,13.74
2019-05-19T21:52:21.882Z,13.70
2019-05-19T21:54:50.043Z,13.61
2019-05-19T21:57:18.168Z,13.55
2019-05-19T21:59:46.331Z,13.49
2019-05-19T22:02:14.492Z,13.46
2019-05-19T22:04:42.598Z,13.42
2019-05-19T22:07:10.783Z,13.41
2019-05-19T22:09:38.882Z,13.39
2019-05-19T22:12:06.992Z,13.38
2019-05-19T22:14:35.227Z,13.36
2019-05-19T22:17:03.397Z,13.34
2019-05-19T22:19:31.550Z,13.32
2019-05-19T22:21:59.699Z,13.32
2019-05-19T22:24:27.844Z,13.31
2019-05-19T22:26:56.012Z,13.32
2019-05-19T22:29:24.250Z,13.29
2019-05-19T22:31:52.376Z,13.31
2019-05-19T22:34:20.620Z,13.32
2019-05-19T22:36:48.699Z,13.31
2019-05-19T22:39:16.807Z,13.32
2019-05-19T22:41:44.997Z,13.31
2019-05-19T22:44:13.184Z,13.31
2019-05-19T22:46:41.412Z,13.31
2019-05-19T22:49:09.613Z,13.32
2019-05-19T22:51:37.799Z,13.33
2019-05-19T22:54:05.934Z,13.33
2019-05-19T22:56:34.060Z,13.32
2019-05-19T22:59:18.619Z,13.33
2019-05-19T23:01:34.399Z,13.33
2019-05-19T23:04:02.535Z,13.31
2019-05-19T23:06:30.678Z,13.34
2019-05-19T23:08:58.826Z,13.36
2019-05-19T23:11:27.000Z,13.34
2019-05-19T23:13:55.127Z,13.35
2019-05-19T23:16:23.256Z,13.36
2019-05-19T23:18:51.794Z,13.35
2019-05-19T23:21:19.926Z,13.36
2019-05-19T23:23:48.038Z,13.35
2019-05-19T23:26:16.267Z,13.34
2019-05-19T23:28:44.443Z,13.34
2019-05-19T23:31:12.563Z,13.36
2019-05-19T23:33:40.735Z,13.36
2019-05-19T23:36:08.847Z,13.38
2019-05-19T23:38:36.955Z,13.40
2019-05-19T23:41:05.104Z,13.40
2019-05-19T23:43:33.229Z,13.40
2019-05-19T23:46:01.346Z,13.41
2019-05-19T23:48:29.628Z,13.40
2019-05-19T23:50:57.787Z,13.39
2019-05-19T23:53:26.052Z,13.38
2019-05-19T23:55:54.201Z,13.38
2019-05-19T23:58:22.305Z,13.39
